sensor_id;sensor_type;location;lat;lon;timestamp;P1;durP1;ratioP1;P2;durP2;ratioP2
31238;SDS011;17871;31.584;74.450;2023-02-23T00:02:19;194.98;;;90.55;;
31238;SDS011;17871;31.584;74.450;2023-02-23T00:04:48;224.93;;;105.68;;
31238;SDS011;17871;31.584;74.450;2023-02-23T00:07:17;246.98;;;115.65;;
31238;SDS011;17871;31.584;74.450;2023-02-23T00:09:49;255.10;;;116.85;;
31238;SDS011;17871;31.584;74.450;2023-02-23T00:12:19;277.80;;;122.57;;
31238;SDS011;17871;31.584;74.450;2023-02-23T00:14:50;300.63;;;130.43;;
31238;SDS011;17871;31.584;74.450;2023-02-23T00:17:19;292.48;;;131.95;;
31238;SDS011;17871;31.584;74.450;2023-02-23T00:19:51;293.92;;;137.55;;
31238;SDS011;17871;31.584;74.450;2023-02-23T00:22:19;344.98;;;156.73;;
31238;SDS011;17871;31.584;74.450;2023-02-23T00:24:48;404.67;;;184.23;;
31238;SDS011;17871;31.584;74.450;2023-02-23T00:27:17;421.52;;;190.77;;
31238;SDS011;17871;31.584;74.450;2023-02-23T00:29:48;422.60;;;189.02;;
31238;SDS011;17871;31.584;74.450;2023-02-23T00:32:17;415.98;;;184.85;;
31238;SDS011;17871;31.584;74.450;2023-02-23T00:34:49;369.02;;;171.77;;
31238;SDS011;17871;31.584;74.450;2023-02-23T00:37:18;356.27;;;155.50;;
31238;SDS011;17871;31.584;74.450;2023-02-23T00:39:53;342.93;;;147.93;;
31238;SDS011;17871;31.584;74.450;2023-02-23T00:42:26;356.10;;;150.80;;
31238;SDS011;17871;31.584;74.450;2023-02-23T00:45:00;304.33;;;139.10;;
31238;SDS011;17871;31.584;74.450;2023-02-23T00:47:35;311.15;;;135.05;;
31238;SDS011;17871;31.584;74.450;2023-02-23T00:50:04;312.52;;;132.35;;
31238;SDS011;17871;31.584;74.450;2023-02-23T00:52:34;311.08;;;134.52;;
31238;SDS011;17871;31.584;74.450;2023-02-23T00:55:03;293.60;;;129.88;;
31238;SDS011;17871;31.584;74.450;2023-02-23T00:57:34;305.67;;;128.75;;
31238;SDS011;17871;31.584;74.450;2023-02-23T01:00:04;301.10;;;130.50;;
31238;SDS011;17871;31.584;74.450;2023-02-23T01:02:48;303.30;;;135.05;;
31238;SDS011;17871;31.584;74.450;2023-02-23T01:05:19;329.33;;;136.98;;
31238;SDS011;17871;31.584;74.450;2023-02-23T01:07:53;318.17;;;140.75;;
31238;SDS011;17871;31.584;74.450;2023-02-23T01:10:28;326.23;;;142.65;;
31238;SDS011;17871;31.584;74.450;2023-02-23T01:13:00;305.15;;;143.30;;
31238;SDS011;17871;31.584;74.450;2023-02-23T01:15:31;301.30;;;135.90;;
31238;SDS011;17871;31.584;74.450;2023-02-23T01:18:00;288.20;;;135.13;;
31238;SDS011;17871;31.584;74.450;2023-02-23T01:20:29;245.85;;;109.43;;
31238;SDS011;17871;31.584;74.450;2023-02-23T01:23:03;212.50;;;96.60;;
31238;SDS011;17871;31.584;74.450;2023-02-23T01:25:34;213.57;;;95.07;;
31238;SDS011;17871;31.584;74.450;2023-02-23T01:28:06;202.50;;;88.68;;
31238;SDS011;17871;31.584;74.450;2023-02-23T01:30:36;185.70;;;88.85;;
31238;SDS011;17871;31.584;74.450;2023-02-23T01:33:07;193.60;;;85.63;;
31238;SDS011;17871;31.584;74.450;2023-02-23T01:35:36;210.32;;;85.35;;
31238;SDS011;17871;31.584;74.450;2023-02-23T01:38:05;181.77;;;88.40;;
31238;SDS011;17871;31.584;74.450;2023-02-23T01:40:34;183.77;;;87.05;;
31238;SDS011;17871;31.584;74.450;2023-02-23T01:43:16;185.70;;;86.45;;
31238;SDS011;17871;31.584;74.450;2023-02-23T01:45:54;189.23;;;88.53;;
31238;SDS011;17871;31.584;74.450;2023-02-23T01:48:28;257.92;;;104.03;;
31238;SDS011;17871;31.584;74.450;2023-02-23T01:51:07;247.15;;;103.05;;
31238;SDS011;17871;31.584;74.450;2023-02-23T01:53:41;214.75;;;95.65;;
31238;SDS011;17871;31.584;74.450;2023-02-23T01:56:20;239.30;;;107.13;;
31238;SDS011;17871;31.584;74.450;2023-02-23T01:58:54;282.85;;;115.05;;
31238;SDS011;17871;31.584;74.450;2023-02-23T02:01:25;293.27;;;124.20;;
31238;SDS011;17871;31.584;74.450;2023-02-23T02:03:58;305.83;;;128.75;;
31238;SDS011;17871;31.584;74.450;2023-02-23T02:06:34;360.35;;;152.80;;
31238;SDS011;17871;31.584;74.450;2023-02-23T02:09:06;374.25;;;168.73;;
31238;SDS011;17871;31.584;74.450;2023-02-23T02:11:37;425.53;;;194.07;;
31238;SDS011;17871;31.584;74.450;2023-02-23T02:14:19;426.00;;;196.20;;
31238;SDS011;17871;31.584;74.450;2023-02-23T02:28:00;386.50;;;181.57;;
31238;SDS011;17871;31.584;74.450;2023-02-23T02:40:08;518.72;;;244.63;;
31238;SDS011;17871;31.584;74.450;2023-02-23T02:42:50;522.40;;;250.65;;
31238;SDS011;17871;31.584;74.450;2023-02-23T02:45:47;499.52;;;236.27;;
31238;SDS011;17871;31.584;74.450;2023-02-23T02:51:33;439.30;;;198.00;;
31238;SDS011;17871;31.584;74.450;2023-02-23T02:57:00;472.50;;;218.18;;
31238;SDS011;17871;31.584;74.450;2023-02-23T02:59:41;473.85;;;220.77;;
31238;SDS011;17871;31.584;74.450;2023-02-23T03:02:38;489.85;;;230.65;;
31238;SDS011;17871;31.584;74.450;2023-02-23T03:05:44;484.63;;;230.70;;
31238;SDS011;17871;31.584;74.450;2023-02-23T03:08:45;479.42;;;224.38;;
31238;SDS011;17871;31.584;74.450;2023-02-23T03:11:53;490.25;;;223.70;;
31238;SDS011;17871;31.584;74.450;2023-02-23T03:14:58;463.48;;;210.32;;
31238;SDS011;17871;31.584;74.450;2023-02-23T03:25:10;359.13;;;157.10;;
31238;SDS011;17871;31.584;74.450;2023-02-23T03:28:11;298.00;;;128.07;;
31238;SDS011;17871;31.584;74.450;2023-02-23T03:34:15;206.73;;;89.13;;
31238;SDS011;17871;31.584;74.450;2023-02-23T03:37:17;190.82;;;87.30;;
31238;SDS011;17871;31.584;74.450;2023-02-23T03:40:16;185.77;;;81.33;;
31238;SDS011;17871;31.584;74.450;2023-02-23T03:43:45;182.25;;;78.60;;
31238;SDS011;17871;31.584;74.450;2023-02-23T03:46:38;178.55;;;73.85;;
31238;SDS011;17871;31.584;74.450;2023-02-23T03:49:28;162.00;;;76.18;;
31238;SDS011;17871;31.584;74.450;2023-02-23T03:52:23;192.82;;;74.85;;
31238;SDS011;17871;31.584;74.450;2023-02-23T03:55:17;151.63;;;66.68;;
31238;SDS011;17871;31.584;74.450;2023-02-23T03:58:14;159.85;;;69.43;;
31238;SDS011;17871;31.584;74.450;2023-02-23T04:01:05;157.80;;;69.10;;
31238;SDS011;17871;31.584;74.450;2023-02-23T04:03:55;153.20;;;66.60;;
31238;SDS011;17871;31.584;74.450;2023-02-23T04:06:45;139.45;;;62.00;;
31238;SDS011;17871;31.584;74.450;2023-02-23T04:09:34;132.07;;;57.38;;
31238;SDS011;17871;31.584;74.450;2023-02-23T04:12:24;143.80;;;58.10;;
31238;SDS011;17871;31.584;74.450;2023-02-23T04:15:33;150.38;;;61.88;;
31238;SDS011;17871;31.584;74.450;2023-02-23T04:18:07;135.05;;;55.15;;
31238;SDS011;17871;31.584;74.450;2023-02-23T04:20:42;155.32;;;52.85;;
31238;SDS011;17871;31.584;74.450;2023-02-23T04:23:11;163.00;;;73.15;;
31238;SDS011;17871;31.584;74.450;2023-02-23T04:25:39;155.18;;;56.50;;
31238;SDS011;17871;31.584;74.450;2023-02-23T04:28:08;114.25;;;57.88;;
31238;SDS011;17871;31.584;74.450;2023-02-23T04:30:38;120.93;;;50.28;;
31238;SDS011;17871;31.584;74.450;2023-02-23T04:33:08;108.88;;;50.28;;
31238;SDS011;17871;31.584;74.450;2023-02-23T04:35:37;107.60;;;48.03;;
31238;SDS011;17871;31.584;74.450;2023-02-23T04:38:07;131.07;;;51.33;;
31238;SDS011;17871;31.584;74.450;2023-02-23T04:40:36;100.25;;;45.47;;
31238;SDS011;17871;31.584;74.450;2023-02-23T04:43:05;123.03;;;57.95;;
31238;SDS011;17871;31.584;74.450;2023-02-23T04:45:34;132.38;;;58.65;;
31238;SDS011;17871;31.584;74.450;2023-02-23T04:48:03;112.95;;;48.03;;
31238;SDS011;17871;31.584;74.450;2023-02-23T04:50:32;117.38;;;45.65;;
31238;SDS011;17871;31.584;74.450;2023-02-23T04:53:04;99.03;;;43.35;;
31238;SDS011;17871;31.584;74.450;2023-02-23T04:55:33;107.75;;;46.10;;
31238;SDS011;17871;31.584;74.450;2023-02-23T04:58:03;123.05;;;45.97;;
31238;SDS011;17871;31.584;74.450;2023-02-23T05:00:32;109.07;;;43.90;;
31238;SDS011;17871;31.584;74.450;2023-02-23T05:03:01;104.93;;;46.13;;
31238;SDS011;17871;31.584;74.450;2023-02-23T05:05:31;101.03;;;43.97;;
31238;SDS011;17871;31.584;74.450;2023-02-23T05:08:00;117.55;;;48.00;;
31238;SDS011;17871;31.584;74.450;2023-02-23T05:10:29;98.28;;;44.58;;
31238;SDS011;17871;31.584;74.450;2023-02-23T05:12:58;93.50;;;45.65;;
31238;SDS011;17871;31.584;74.450;2023-02-23T05:15:28;82.28;;;39.55;;
31238;SDS011;17871;31.584;74.450;2023-02-23T05:17:57;95.70;;;37.72;;
31238;SDS011;17871;31.584;74.450;2023-02-23T05:20:26;82.15;;;42.40;;
31238;SDS011;17871;31.584;74.450;2023-02-23T05:22:55;98.30;;;44.22;;
31238;SDS011;17871;31.584;74.450;2023-02-23T05:25:24;97.20;;;45.33;;
31238;SDS011;17871;31.584;74.450;2023-02-23T05:27:53;98.13;;;44.72;;
31238;SDS011;17871;31.584;74.450;2023-02-23T05:30:22;105.97;;;44.63;;
31238;SDS011;17871;31.584;74.450;2023-02-23T05:32:51;95.75;;;43.50;;
31238;SDS011;17871;31.584;74.450;2023-02-23T05:35:20;100.57;;;44.72;;
31238;SDS011;17871;31.584;74.450;2023-02-23T05:37:49;72.35;;;34.05;;
31238;SDS011;17871;31.584;74.450;2023-02-23T05:40:18;73.55;;;34.22;;
31238;SDS011;17871;31.584;74.450;2023-02-23T05:42:48;79.28;;;35.20;;
31238;SDS011;17871;31.584;74.450;2023-02-23T05:45:17;72.90;;;33.67;;
31238;SDS011;17871;31.584;74.450;2023-02-23T05:47:45;86.72;;;30.95;;
31238;SDS011;17871;31.584;74.450;2023-02-23T05:50:14;57.55;;;29.27;;
31238;SDS011;17871;31.584;74.450;2023-02-23T05:52:44;67.00;;;30.65;;
31238;SDS011;17871;31.584;74.450;2023-02-23T05:55:13;59.88;;;30.55;;
31238;SDS011;17871;31.584;74.450;2023-02-23T05:57:42;67.57;;;31.33;;
31238;SDS011;17871;31.584;74.450;2023-02-23T06:00:12;60.55;;;24.55;;
31238;SDS011;17871;31.584;74.450;2023-02-23T06:02:41;71.97;;;23.67;;
31238;SDS011;17871;31.584;74.450;2023-02-23T06:05:10;62.88;;;25.52;;
31238;SDS011;17871;31.584;74.450;2023-02-23T06:07:40;73.15;;;25.88;;
31238;SDS011;17871;31.584;74.450;2023-02-23T06:10:10;65.00;;;25.58;;
31238;SDS011;17871;31.584;74.450;2023-02-23T06:12:39;68.75;;;30.15;;
31238;SDS011;17871;31.584;74.450;2023-02-23T06:15:08;72.65;;;26.88;;
31238;SDS011;17871;31.584;74.450;2023-02-23T06:17:38;79.93;;;28.20;;
31238;SDS011;17871;31.584;74.450;2023-02-23T06:20:06;64.90;;;29.40;;
31238;SDS011;17871;31.584;74.450;2023-02-23T06:22:36;75.75;;;28.67;;
31238;SDS011;17871;31.584;74.450;2023-02-23T06:25:05;69.60;;;27.75;;
31238;SDS011;17871;31.584;74.450;2023-02-23T06:27:39;51.15;;;20.35;;
31238;SDS011;17871;31.584;74.450;2023-02-23T06:30:09;48.95;;;17.73;;
31238;SDS011;17871;31.584;74.450;2023-02-23T06:32:39;44.28;;;20.80;;
31238;SDS011;17871;31.584;74.450;2023-02-23T06:35:11;44.50;;;19.50;;
31238;SDS011;17871;31.584;74.450;2023-02-23T06:37:41;43.58;;;19.88;;
31238;SDS011;17871;31.584;74.450;2023-02-23T06:40:10;89.18;;;36.85;;
31238;SDS011;17871;31.584;74.450;2023-02-23T06:42:39;54.13;;;22.77;;
31238;SDS011;17871;31.584;74.450;2023-02-23T06:45:08;60.40;;;21.88;;
31238;SDS011;17871;31.584;74.450;2023-02-23T06:47:38;53.72;;;19.52;;
31238;SDS011;17871;31.584;74.450;2023-02-23T06:50:08;40.65;;;20.23;;
31238;SDS011;17871;31.584;74.450;2023-02-23T06:52:38;50.50;;;18.52;;
31238;SDS011;17871;31.584;74.450;2023-02-23T06:55:07;39.63;;;17.73;;
31238;SDS011;17871;31.584;74.450;2023-02-23T06:57:37;60.83;;;19.30;;
31238;SDS011;17871;31.584;74.450;2023-02-23T07:00:06;45.70;;;22.35;;
31238;SDS011;17871;31.584;74.450;2023-02-23T07:02:36;46.75;;;18.15;;
31238;SDS011;17871;31.584;74.450;2023-02-23T07:05:04;44.00;;;16.92;;
31238;SDS011;17871;31.584;74.450;2023-02-23T07:07:34;42.22;;;16.63;;
31238;SDS011;17871;31.584;74.450;2023-02-23T07:10:03;41.47;;;15.93;;
31238;SDS011;17871;31.584;74.450;2023-02-23T07:12:33;65.78;;;15.00;;
31238;SDS011;17871;31.584;74.450;2023-02-23T07:15:02;44.88;;;15.27;;
31238;SDS011;17871;31.584;74.450;2023-02-23T07:17:31;56.22;;;16.38;;
31238;SDS011;17871;31.584;74.450;2023-02-23T07:20:00;35.33;;;16.33;;
31238;SDS011;17871;31.584;74.450;2023-02-23T07:22:29;38.03;;;16.10;;
31238;SDS011;17871;31.584;74.450;2023-02-23T07:24:58;39.38;;;14.68;;
31238;SDS011;17871;31.584;74.450;2023-02-23T07:27:27;70.28;;;14.13;;
31238;SDS011;17871;31.584;74.450;2023-02-23T07:29:56;60.50;;;12.52;;
31238;SDS011;17871;31.584;74.450;2023-02-23T07:32:25;25.20;;;10.48;;
31238;SDS011;17871;31.584;74.450;2023-02-23T07:34:54;25.45;;;11.57;;
31238;SDS011;17871;31.584;74.450;2023-02-23T07:37:23;32.47;;;12.52;;
31238;SDS011;17871;31.584;74.450;2023-02-23T07:39:52;30.83;;;11.02;;
31238;SDS011;17871;31.584;74.450;2023-02-23T07:42:21;35.15;;;11.63;;
31238;SDS011;17871;31.584;74.450;2023-02-23T07:44:51;34.17;;;13.25;;
31238;SDS011;17871;31.584;74.450;2023-02-23T07:47:21;34.90;;;13.77;;
31238;SDS011;17871;31.584;74.450;2023-02-23T07:49:57;53.08;;;13.02;;
31238;SDS011;17871;31.584;74.450;2023-02-23T07:52:28;36.28;;;12.98;;
31238;SDS011;17871;31.584;74.450;2023-02-23T07:54:57;32.30;;;12.05;;
31238;SDS011;17871;31.584;74.450;2023-02-23T07:57:26;41.08;;;13.27;;
31238;SDS011;17871;31.584;74.450;2023-02-23T07:59:55;43.80;;;15.35;;
31238;SDS011;17871;31.584;74.450;2023-02-23T08:02:24;36.03;;;14.25;;
31238;SDS011;17871;31.584;74.450;2023-02-23T08:04:56;45.23;;;13.87;;
31238;SDS011;17871;31.584;74.450;2023-02-23T08:07:24;29.35;;;14.00;;
31238;SDS011;17871;31.584;74.450;2023-02-23T08:09:53;35.35;;;14.77;;
31238;SDS011;17871;31.584;74.450;2023-02-23T08:12:22;41.72;;;15.32;;
31238;SDS011;17871;31.584;74.450;2023-02-23T08:14:51;35.42;;;15.48;;
31238;SDS011;17871;31.584;74.450;2023-02-23T08:17:21;40.38;;;14.38;;
31238;SDS011;17871;31.584;74.450;2023-02-23T08:19:50;47.05;;;15.88;;
31238;SDS011;17871;31.584;74.450;2023-02-23T08:22:18;40.97;;;14.40;;
31238;SDS011;17871;31.584;74.450;2023-02-23T08:24:48;71.22;;;13.30;;
31238;SDS011;17871;31.584;74.450;2023-02-23T08:27:17;28.00;;;11.07;;
31238;SDS011;17871;31.584;74.450;2023-02-23T08:29:47;55.00;;;13.98;;
31238;SDS011;17871;31.584;74.450;2023-02-23T08:32:15;39.75;;;13.02;;
31238;SDS011;17871;31.584;74.450;2023-02-23T08:34:44;44.83;;;13.27;;
31238;SDS011;17871;31.584;74.450;2023-02-23T08:37:13;39.83;;;14.40;;
31238;SDS011;17871;31.584;74.450;2023-02-23T08:39:42;33.25;;;14.13;;
31238;SDS011;17871;31.584;74.450;2023-02-23T08:42:11;39.08;;;15.02;;
31238;SDS011;17871;31.584;74.450;2023-02-23T08:44:41;31.33;;;13.90;;
31238;SDS011;17871;31.584;74.450;2023-02-23T08:47:10;38.67;;;15.60;;
31238;SDS011;17871;31.584;74.450;2023-02-23T09:13:15;37.50;;;14.15;;
31238;SDS011;17871;31.584;74.450;2023-02-23T09:15:46;37.35;;;14.52;;
31238;SDS011;17871;31.584;74.450;2023-02-23T09:18:15;34.55;;;13.88;;
31238;SDS011;17871;31.584;74.450;2023-02-23T09:20:45;26.40;;;10.60;;
31238;SDS011;17871;31.584;74.450;2023-02-23T09:23:14;43.40;;;11.60;;
31238;SDS011;17871;31.584;74.450;2023-02-23T09:25:43;26.95;;;10.95;;
31238;SDS011;17871;31.584;74.450;2023-02-23T09:28:14;36.47;;;11.95;;
31238;SDS011;17871;31.584;74.450;2023-02-23T09:30:45;28.67;;;10.98;;
31238;SDS011;17871;31.584;74.450;2023-02-23T09:33:15;49.38;;;14.23;;
31238;SDS011;17871;31.584;74.450;2023-02-23T09:35:45;42.90;;;13.88;;
31238;SDS011;17871;31.584;74.450;2023-02-23T09:38:13;38.28;;;10.73;;
31238;SDS011;17871;31.584;74.450;2023-02-23T09:40:47;45.95;;;11.50;;
31238;SDS011;17871;31.584;74.450;2023-02-23T09:43:29;29.20;;;10.70;;
31238;SDS011;17871;31.584;74.450;2023-02-23T09:49:39;31.42;;;12.25;;
31238;SDS011;17871;31.584;74.450;2023-02-23T09:54:45;34.42;;;11.93;;
31238;SDS011;17871;31.584;74.450;2023-02-23T09:57:18;52.97;;;13.65;;
31238;SDS011;17871;31.584;74.450;2023-02-23T09:59:53;48.90;;;13.10;;
31238;SDS011;17871;31.584;74.450;2023-02-23T10:02:22;32.45;;;15.35;;
31238;SDS011;17871;31.584;74.450;2023-02-23T10:05:02;25.08;;;11.30;;
31238;SDS011;17871;31.584;74.450;2023-02-23T10:07:49;27.58;;;12.00;;
31238;SDS011;17871;31.584;74.450;2023-02-23T10:10:43;36.35;;;13.43;;
31238;SDS011;17871;31.584;74.450;2023-02-23T10:21:31;31.38;;;11.23;;
31238;SDS011;17871;31.584;74.450;2023-02-23T10:26:57;43.22;;;13.07;;
31238;SDS011;17871;31.584;74.450;2023-02-23T10:29:40;27.52;;;10.35;;
31238;SDS011;17871;31.584;74.450;2023-02-23T10:32:26;28.15;;;10.75;;
31238;SDS011;17871;31.584;74.450;2023-02-23T10:35:14;42.10;;;11.00;;
31238;SDS011;17871;31.584;74.450;2023-02-23T10:37:47;53.95;;;12.82;;
31238;SDS011;17871;31.584;74.450;2023-02-23T10:40:22;31.42;;;12.13;;
31238;SDS011;17871;31.584;74.450;2023-02-23T10:42:55;31.58;;;13.07;;
31238;SDS011;17871;31.584;74.450;2023-02-23T10:45:26;29.90;;;11.13;;
31238;SDS011;17871;31.584;74.450;2023-02-23T10:48:18;28.42;;;11.13;;
31238;SDS011;17871;31.584;74.450;2023-02-23T10:50:49;41.22;;;11.20;;
31238;SDS011;17871;31.584;74.450;2023-02-23T10:58:46;51.65;;;13.48;;
31238;SDS011;17871;31.584;74.450;2023-02-23T11:04:31;28.13;;;9.98;;
31238;SDS011;17871;31.584;74.450;2023-02-23T11:07:09;34.42;;;9.63;;
31238;SDS011;17871;31.584;74.450;2023-02-23T11:09:45;31.95;;;10.32;;
31238;SDS011;17871;31.584;74.450;2023-02-23T11:12:20;29.15;;;12.93;;
31238;SDS011;17871;31.584;74.450;2023-02-23T11:14:53;35.33;;;12.52;;
31238;SDS011;17871;31.584;74.450;2023-02-23T11:19:59;30.42;;;13.13;;
31238;SDS011;17871;31.584;74.450;2023-02-23T11:22:31;33.92;;;13.02;;
31238;SDS011;17871;31.584;74.450;2023-02-23T11:25:12;39.95;;;13.50;;
31238;SDS011;17871;31.584;74.450;2023-02-23T11:27:46;47.65;;;16.67;;
31238;SDS011;17871;31.584;74.450;2023-02-23T11:30:22;40.97;;;14.10;;
31238;SDS011;17871;31.584;74.450;2023-02-23T11:32:58;34.03;;;13.95;;
31238;SDS011;17871;31.584;74.450;2023-02-23T11:35:38;33.35;;;10.35;;
31238;SDS011;17871;31.584;74.450;2023-02-23T11:41:24;41.55;;;19.10;;
31238;SDS011;17871;31.584;74.450;2023-02-23T11:43:51;45.95;;;21.45;;
31238;SDS011;17871;31.584;74.450;2023-02-23T11:46:25;29.95;;;12.68;;
31238;SDS011;17871;31.584;74.450;2023-02-23T11:48:58;68.80;;;23.30;;
31238;SDS011;17871;31.584;74.450;2023-02-23T11:51:39;58.50;;;20.95;;
31238;SDS011;17871;31.584;74.450;2023-02-23T11:54:21;33.17;;;14.00;;
31238;SDS011;17871;31.584;74.450;2023-02-23T11:56:58;44.10;;;17.35;;
31238;SDS011;17871;31.584;74.450;2023-02-23T11:59:33;63.67;;;20.17;;
31238;SDS011;17871;31.584;74.450;2023-02-23T12:02:24;49.00;;;18.83;;
31238;SDS011;17871;31.584;74.450;2023-02-23T12:05:03;53.58;;;21.60;;
31238;SDS011;17871;31.584;74.450;2023-02-23T12:07:40;50.22;;;18.05;;
31238;SDS011;17871;31.584;74.450;2023-02-23T12:27:51;71.47;;;26.92;;
31238;SDS011;17871;31.584;74.450;2023-02-23T12:30:52;70.05;;;25.40;;
31238;SDS011;17871;31.584;74.450;2023-02-23T12:36:41;98.22;;;31.50;;
31238;SDS011;17871;31.584;74.450;2023-02-23T12:39:30;120.40;;;42.08;;
31238;SDS011;17871;31.584;74.450;2023-02-23T12:44:46;78.43;;;31.40;;
31238;SDS011;17871;31.584;74.450;2023-02-23T12:52:48;99.95;;;35.60;;
31238;SDS011;17871;31.584;74.450;2023-02-23T12:55:34;97.85;;;34.17;;
31238;SDS011;17871;31.584;74.450;2023-02-23T13:12:35;51.78;;;19.77;;
31238;SDS011;17871;31.584;74.450;2023-02-23T13:20:43;94.53;;;18.58;;
31238;SDS011;17871;31.584;74.450;2023-02-23T13:32:10;35.97;;;14.23;;
31238;SDS011;17871;31.584;74.450;2023-02-23T13:34:59;62.45;;;18.95;;
31238;SDS011;17871;31.584;74.450;2023-02-23T13:54:24;79.70;;;21.30;;
31238;SDS011;17871;31.584;74.450;2023-02-23T13:56:57;53.92;;;20.13;;
31238;SDS011;17871;31.584;74.450;2023-02-23T13:59:30;78.15;;;22.98;;
31238;SDS011;17871;31.584;74.450;2023-02-23T14:02:19;70.18;;;20.30;;
31238;SDS011;17871;31.584;74.450;2023-02-23T14:04:51;65.90;;;21.35;;
31238;SDS011;17871;31.584;74.450;2023-02-23T14:07:27;84.60;;;23.17;;
31238;SDS011;17871;31.584;74.450;2023-02-23T14:09:59;68.93;;;23.13;;
31238;SDS011;17871;31.584;74.450;2023-02-23T14:12:35;55.80;;;22.30;;
31238;SDS011;17871;31.584;74.450;2023-02-23T14:17:58;64.60;;;24.92;;
31238;SDS011;17871;31.584;74.450;2023-02-23T14:41:49;68.50;;;26.58;;
31238;SDS011;17871;31.584;74.450;2023-02-23T14:44:30;60.05;;;25.55;;
31238;SDS011;17871;31.584;74.450;2023-02-23T14:47:13;73.95;;;25.13;;
31238;SDS011;17871;31.584;74.450;2023-02-23T14:52:27;70.00;;;22.92;;
31238;SDS011;17871;31.584;74.450;2023-02-23T14:57:55;59.20;;;20.80;;
31238;SDS011;17871;31.584;74.450;2023-02-23T15:00:27;51.67;;;22.10;;
31238;SDS011;17871;31.584;74.450;2023-02-23T15:05:44;50.05;;;21.08;;
31238;SDS011;17871;31.584;74.450;2023-02-23T15:08:19;68.18;;;23.25;;
31238;SDS011;17871;31.584;74.450;2023-02-23T15:10:52;66.95;;;22.50;;
31238;SDS011;17871;31.584;74.450;2023-02-23T15:13:39;56.25;;;21.35;;
31238;SDS011;17871;31.584;74.450;2023-02-23T15:16:15;67.97;;;24.00;;
31238;SDS011;17871;31.584;74.450;2023-02-23T15:18:51;59.95;;;23.08;;
31238;SDS011;17871;31.584;74.450;2023-02-23T15:21:21;65.78;;;25.52;;
31238;SDS011;17871;31.584;74.450;2023-02-23T15:23:56;67.35;;;27.15;;
31238;SDS011;17871;31.584;74.450;2023-02-23T15:26:34;78.95;;;26.88;;
31238;SDS011;17871;31.584;74.450;2023-02-23T15:31:44;82.97;;;28.70;;
31238;SDS011;17871;31.584;74.450;2023-02-23T15:34:20;84.30;;;28.10;;
31238;SDS011;17871;31.584;74.450;2023-02-23T15:36:54;63.72;;;26.60;;
31238;SDS011;17871;31.584;74.450;2023-02-23T15:39:33;84.20;;;34.08;;
31238;SDS011;17871;31.584;74.450;2023-02-23T15:42:11;126.68;;;38.83;;
31238;SDS011;17871;31.584;74.450;2023-02-23T15:44:44;118.10;;;37.95;;
31238;SDS011;17871;31.584;74.450;2023-02-23T15:47:19;145.32;;;41.20;;
31238;SDS011;17871;31.584;74.450;2023-02-23T15:49:59;131.00;;;46.53;;
31238;SDS011;17871;31.584;74.450;2023-02-23T15:52:37;159.15;;;59.35;;
31238;SDS011;17871;31.584;74.450;2023-02-23T15:55:13;156.13;;;65.82;;
31238;SDS011;17871;31.584;74.450;2023-02-23T15:57:51;118.22;;;50.15;;
31238;SDS011;17871;31.584;74.450;2023-02-23T16:00:33;120.15;;;45.67;;
31238;SDS011;17871;31.584;74.450;2023-02-23T16:03:06;114.20;;;45.17;;
31238;SDS011;17871;31.584;74.450;2023-02-23T16:08:26;125.63;;;40.92;;
31238;SDS011;17871;31.584;74.450;2023-02-23T16:11:07;113.13;;;46.25;;
31238;SDS011;17871;31.584;74.450;2023-02-23T16:13:43;131.18;;;47.17;;
31238;SDS011;17871;31.584;74.450;2023-02-23T16:16:14;125.72;;;49.70;;
31238;SDS011;17871;31.584;74.450;2023-02-23T16:18:50;115.65;;;53.83;;
31238;SDS011;17871;31.584;74.450;2023-02-23T16:21:22;133.52;;;49.03;;
31238;SDS011;17871;31.584;74.450;2023-02-23T16:23:52;134.68;;;46.50;;
31238;SDS011;17871;31.584;74.450;2023-02-23T16:26:44;123.22;;;49.42;;
31238;SDS011;17871;31.584;74.450;2023-02-23T16:29:15;141.75;;;48.47;;
31238;SDS011;17871;31.584;74.450;2023-02-23T16:31:55;146.40;;;48.17;;
31238;SDS011;17871;31.584;74.450;2023-02-23T16:34:34;121.00;;;43.42;;
31238;SDS011;17871;31.584;74.450;2023-02-23T16:37:15;101.20;;;43.38;;
31238;SDS011;17871;31.584;74.450;2023-02-23T16:39:50;101.68;;;42.00;;
31238;SDS011;17871;31.584;74.450;2023-02-23T16:42:31;119.10;;;41.20;;
31238;SDS011;17871;31.584;74.450;2023-02-23T16:47:32;135.32;;;42.28;;
31238;SDS011;17871;31.584;74.450;2023-02-23T16:50:18;114.88;;;42.17;;
31238;SDS011;17871;31.584;74.450;2023-02-23T16:52:49;114.55;;;37.88;;
31238;SDS011;17871;31.584;74.450;2023-02-23T16:55:21;115.53;;;36.65;;
31238;SDS011;17871;31.584;74.450;2023-02-23T16:58:01;90.70;;;33.78;;
31238;SDS011;17871;31.584;74.450;2023-02-23T17:00:32;91.18;;;33.25;;
31238;SDS011;17871;31.584;74.450;2023-02-23T17:03:01;99.85;;;34.25;;
31238;SDS011;17871;31.584;74.450;2023-02-23T17:05:33;87.57;;;30.30;;
31238;SDS011;17871;31.584;74.450;2023-02-23T17:08:02;65.97;;;27.73;;
31238;SDS011;17871;31.584;74.450;2023-02-23T17:10:32;74.45;;;28.27;;
31238;SDS011;17871;31.584;74.450;2023-02-23T17:13:07;68.70;;;26.02;;
31238;SDS011;17871;31.584;74.450;2023-02-23T17:15:44;78.40;;;26.05;;
31238;SDS011;17871;31.584;74.450;2023-02-23T17:18:22;63.05;;;27.23;;
31238;SDS011;17871;31.584;74.450;2023-02-23T17:20:53;68.73;;;25.60;;
31238;SDS011;17871;31.584;74.450;2023-02-23T17:23:23;60.75;;;26.08;;
31238;SDS011;17871;31.584;74.450;2023-02-23T17:25:54;61.35;;;23.63;;
31238;SDS011;17871;31.584;74.450;2023-02-23T17:28:24;65.38;;;26.38;;
31238;SDS011;17871;31.584;74.450;2023-02-23T17:30:53;72.18;;;25.65;;
31238;SDS011;17871;31.584;74.450;2023-02-23T17:33:22;59.90;;;25.70;;
31238;SDS011;17871;31.584;74.450;2023-02-23T17:35:52;74.40;;;29.77;;
31238;SDS011;17871;31.584;74.450;2023-02-23T17:38:21;83.32;;;29.80;;
31238;SDS011;17871;31.584;74.450;2023-02-23T17:43:31;75.45;;;29.58;;
31238;SDS011;17871;31.584;74.450;2023-02-23T17:46:00;79.47;;;30.38;;
31238;SDS011;17871;31.584;74.450;2023-02-23T17:48:29;67.00;;;29.52;;
31238;SDS011;17871;31.584;74.450;2023-02-23T17:51:05;71.05;;;31.83;;
31238;SDS011;17871;31.584;74.450;2023-02-23T17:53:39;84.35;;;34.75;;
31238;SDS011;17871;31.584;74.450;2023-02-23T17:56:08;88.40;;;33.38;;
31238;SDS011;17871;31.584;74.450;2023-02-23T17:59:15;70.32;;;32.72;;
31238;SDS011;17871;31.584;74.450;2023-02-23T18:01:44;93.47;;;32.92;;
31238;SDS011;17871;31.584;74.450;2023-02-23T18:04:17;98.65;;;33.85;;
31238;SDS011;17871;31.584;74.450;2023-02-23T18:06:46;84.00;;;32.50;;
31238;SDS011;17871;31.584;74.450;2023-02-23T18:09:15;77.00;;;33.13;;
31238;SDS011;17871;31.584;74.450;2023-02-23T18:11:44;79.70;;;34.10;;
31238;SDS011;17871;31.584;74.450;2023-02-23T18:14:13;68.30;;;30.85;;